createdAt,value
2019-01-26T00:01:20.864Z,125.60
2019-01-26T00:03:28.387Z,115.60
2019-01-26T00:05:35.817Z,110.00
2019-01-26T00:07:43.339Z,97.50
2019-01-26T00:09:50.850Z,109.13
2019-01-26T00:11:58.277Z,101.70
2019-01-26T00:14:06.464Z,105.70
2019-01-26T00:16:13.571Z,101.67
2019-01-26T00:18:20.761Z,93.93
2019-01-26T00:20:28.408Z,98.23
2019-01-26T00:22:35.905Z,87.20
2019-01-26T00:24:43.261Z,98.07
2019-01-26T00:26:50.882Z,94.07
2019-01-26T00:28:58.210Z,92.00
2019-01-26T00:31:05.617Z,94.57
2019-01-26T00:33:13.116Z,95.07
2019-01-26T00:35:20.231Z,89.33
2019-01-26T00:37:27.886Z,96.93
2019-01-26T00:39:35.420Z,91.50
2019-01-26T00:41:42.976Z,97.00
2019-01-26T00:43:50.541Z,88.23
2019-01-26T00:45:58.028Z,92.27
2019-01-26T00:48:05.501Z,94.37
2019-01-26T00:50:13.032Z,98.50
2019-01-26T00:52:20.518Z,183.67
2019-01-26T00:54:28.160Z,204.93
2019-01-26T00:56:35.608Z,123.43
2019-01-26T00:58:43.485Z,165.87
2019-01-26T01:00:51.009Z,149.90
2019-01-26T01:02:58.340Z,134.23
2019-01-26T01:05:06.029Z,105.40
2019-01-26T01:07:13.418Z,115.40
2019-01-26T01:09:20.983Z,104.83
2019-01-26T01:11:28.296Z,96.37
2019-01-26T01:13:35.789Z,87.87
2019-01-26T01:15:43.351Z,93.03
2019-01-26T01:17:51.124Z,98.80
2019-01-26T01:19:58.614Z,93.57
2019-01-26T01:22:06.153Z,93.20
2019-01-26T01:24:14.108Z,94.60
2019-01-26T01:26:21.511Z,100.37
2019-01-26T01:28:28.940Z,89.87
2019-01-26T01:30:36.503Z,91.87
2019-01-26T01:32:43.773Z,89.10
2019-01-26T01:34:51.237Z,89.43
2019-01-26T01:36:58.651Z,95.47
2019-01-26T01:39:09.045Z,94.13
2019-01-26T01:41:16.444Z,107.33
2019-01-26T01:43:24.288Z,94.27
2019-01-26T01:45:31.809Z,89.27
2019-01-26T01:47:39.102Z,88.33
2019-01-26T01:49:46.732Z,86.90
2019-01-26T01:51:54.083Z,81.80
2019-01-26T01:54:01.435Z,89.23
2019-01-26T01:56:08.773Z,87.83
2019-01-26T01:58:16.166Z,91.00
2019-01-26T02:00:25.601Z,86.93
2019-01-26T02:02:33.153Z,82.33
2019-01-26T02:04:40.483Z,91.63
2019-01-26T02:06:48.092Z,84.57
2019-01-26T02:08:55.712Z,83.00
2019-01-26T02:11:02.969Z,89.53
2019-01-26T02:13:10.386Z,88.03
2019-01-26T02:15:17.538Z,89.10
2019-01-26T02:17:25.405Z,90.47
2019-01-26T02:19:32.859Z,84.30
2019-01-26T02:21:40.704Z,92.03
2019-01-26T02:23:47.949Z,86.30
2019-01-26T02:25:55.405Z,89.73
2019-01-26T02:28:02.726Z,82.00
2019-01-26T02:30:13.487Z,98.80
2019-01-26T02:32:20.847Z,88.50
2019-01-26T02:34:28.235Z,90.93
2019-01-26T02:36:35.626Z,86.27
2019-01-26T02:38:43.042Z,83.87
2019-01-26T02:40:52.266Z,93.00
2019-01-26T02:42:59.762Z,92.33
2019-01-26T02:45:07.669Z,98.90
2019-01-26T02:47:14.938Z,81.30
2019-01-26T02:49:22.364Z,88.80
2019-01-26T02:51:29.789Z,92.97
2019-01-26T02:53:37.269Z,89.57
2019-01-26T02:55:44.755Z,87.73
2019-01-26T02:57:52.134Z,79.50
2019-01-26T02:59:59.592Z,80.67
2019-01-26T03:02:07.064Z,85.73
2019-01-26T03:04:14.356Z,115.97
2019-01-26T03:06:21.861Z,101.40
2019-01-26T03:08:29.129Z,89.20
2019-01-26T03:10:36.490Z,91.17
2019-01-26T03:12:43.942Z,95.73
2019-01-26T03:14:51.313Z,95.27
2019-01-26T03:17:05.610Z,101.63
2019-01-26T03:19:08.153Z,89.80
2019-01-26T03:21:15.628Z,94.93
2019-01-26T03:23:22.773Z,92.23
2019-01-26T03:25:30.143Z,89.47
2019-01-26T03:27:37.508Z,85.77
2019-01-26T03:29:44.767Z,82.63
2019-01-26T03:31:52.230Z,78.23
2019-01-26T03:33:59.661Z,84.50
2019-01-26T03:36:07.070Z,89.93
2019-01-26T03:38:14.541Z,80.70
2019-01-26T03:40:23.012Z,78.10
2019-01-26T03:42:30.493Z,82.67
2019-01-26T03:44:37.978Z,92.53
2019-01-26T03:46:45.389Z,86.47
2019-01-26T03:48:52.808Z,79.57
2019-01-26T03:51:00.514Z,80.90
2019-01-26T03:53:07.849Z,86.27
2019-01-26T03:55:17.295Z,81.53
2019-01-26T03:57:24.739Z,86.30
2019-01-26T03:59:32.231Z,80.97
2019-01-26T04:01:39.565Z,78.33
2019-01-26T04:03:46.755Z,87.43
2019-01-26T04:05:54.122Z,94.93
2019-01-26T04:08:01.396Z,90.63
2019-01-26T04:10:09.940Z,102.37
2019-01-26T04:12:17.337Z,83.33
2019-01-26T04:14:24.659Z,84.67
2019-01-26T04:16:32.034Z,91.17
2019-01-26T04:18:39.465Z,88.47
2019-01-26T04:20:47.414Z,96.80
2019-01-26T04:22:54.966Z,89.87
2019-01-26T04:25:02.299Z,86.97
2019-01-26T04:27:09.702Z,97.47
2019-01-26T04:29:17.046Z,91.63
2019-01-26T04:31:24.462Z,84.23
2019-01-26T04:33:31.811Z,94.47
2019-01-26T04:35:39.618Z,95.57
2019-01-26T04:37:47.030Z,88.73
2019-01-26T04:39:54.392Z,85.30
2019-01-26T04:42:01.454Z,88.47
2019-01-26T04:44:08.595Z,79.83
2019-01-26T04:46:15.958Z,82.57
2019-01-26T04:48:23.397Z,87.10
2019-01-26T04:50:30.850Z,78.60
2019-01-26T04:52:38.172Z,81.30
2019-01-26T04:54:45.652Z,79.60
2019-01-26T04:56:53.016Z,87.10
2019-01-26T04:59:00.563Z,78.13
2019-01-26T05:01:08.134Z,89.60
2019-01-26T05:03:15.636Z,82.27
2019-01-26T05:05:23.002Z,79.07
2019-01-26T05:07:30.808Z,84.67
2019-01-26T05:09:38.254Z,83.20
2019-01-26T05:11:45.590Z,82.17
2019-01-26T05:13:52.976Z,88.93
2019-01-26T05:16:00.361Z,83.20
2019-01-26T05:18:07.989Z,84.50
2019-01-26T05:20:24.365Z,79.93
2019-01-26T05:22:31.947Z,85.47
2019-01-26T05:24:38.962Z,80.07
2019-01-26T05:26:46.409Z,82.93
2019-01-26T05:28:53.419Z,89.47
2019-01-26T05:31:00.457Z,89.10
2019-01-26T05:33:07.752Z,87.60
2019-01-26T05:35:14.754Z,84.23
2019-01-26T05:37:21.803Z,83.10
2019-01-26T05:39:28.804Z,84.77
2019-01-26T05:41:35.882Z,86.80
2019-01-26T05:43:42.869Z,85.00
2019-01-26T05:45:50.215Z,91.83
2019-01-26T05:47:57.275Z,85.00
2019-01-26T05:50:04.327Z,80.70
2019-01-26T05:52:11.355Z,81.73
2019-01-26T05:54:18.312Z,88.30
2019-01-26T05:56:25.346Z,82.57
2019-01-26T05:58:32.441Z,78.93
2019-01-26T06:00:39.575Z,87.53
2019-01-26T06:02:46.547Z,90.13
2019-01-26T06:04:53.959Z,84.20
2019-01-26T06:07:01.038Z,84.67
2019-01-26T06:09:10.265Z,91.13
2019-01-26T06:11:17.244Z,90.53
2019-01-26T06:13:24.261Z,89.53
2019-01-26T06:15:31.303Z,88.77
2019-01-26T06:17:38.477Z,89.70
2019-01-26T06:19:45.520Z,94.73
2019-01-26T06:21:52.817Z,83.17
2019-01-26T06:24:00.422Z,97.37
2019-01-26T06:26:07.539Z,98.93
2019-01-26T06:28:14.541Z,84.67
2019-01-26T06:30:24.631Z,86.33
2019-01-26T06:32:31.657Z,92.33
2019-01-26T06:34:38.670Z,89.53
2019-01-26T06:36:45.774Z,91.23
2019-01-26T06:38:53.583Z,95.90
2019-01-26T06:41:00.827Z,91.80
2019-01-26T06:43:08.142Z,89.27
2019-01-26T06:45:17.371Z,104.07
2019-01-26T06:47:24.435Z,93.70
2019-01-26T06:49:31.560Z,91.47
2019-01-26T06:51:40.188Z,94.20
2019-01-26T06:53:47.301Z,94.33
2019-01-26T06:55:54.502Z,90.50
2019-01-26T06:58:01.574Z,93.13
2019-01-26T07:00:13.313Z,100.40
2019-01-26T07:02:20.772Z,99.13
2019-01-26T07:04:52.565Z,88.53
2019-01-26T07:07:17.577Z,91.67
2019-01-26T07:09:24.731Z,92.60
2019-01-26T07:11:32.212Z,94.50
2019-01-26T07:13:39.885Z,102.63
2019-01-26T07:15:47.461Z,90.87
2019-01-26T07:17:54.750Z,89.90
2019-01-26T07:20:02.165Z,92.57
2019-01-26T07:22:09.470Z,111.33
2019-01-26T07:24:16.891Z,104.77
2019-01-26T07:26:24.781Z,101.03
2019-01-26T07:28:32.222Z,101.57
2019-01-26T07:30:39.682Z,101.23
2019-01-26T07:32:47.161Z,92.07
2019-01-26T07:34:54.701Z,102.50
2019-01-26T07:37:02.032Z,95.03
2019-01-26T07:39:11.030Z,97.80
2019-01-26T07:41:18.007Z,101.30
2019-01-26T07:43:25.433Z,96.67
2019-01-26T07:45:33.082Z,105.40
2019-01-26T07:47:40.587Z,94.77
2019-01-26T07:49:47.985Z,100.30
2019-01-26T07:51:55.500Z,100.50
2019-01-26T07:54:02.710Z,105.67
2019-01-26T07:56:10.003Z,97.30
2019-01-26T07:58:17.416Z,117.17
2019-01-26T08:00:26.847Z,100.40
2019-01-26T08:02:34.375Z,114.33
2019-01-26T08:04:41.701Z,102.30
2019-01-26T08:06:48.961Z,119.60
2019-01-26T08:08:56.137Z,115.00
2019-01-26T08:11:03.245Z,118.57
2019-01-26T08:13:10.776Z,107.17
2019-01-26T08:15:21.909Z,100.53
2019-01-26T08:17:29.366Z,112.80
2019-01-26T08:19:36.871Z,98.13
2019-01-26T08:21:44.355Z,93.97
2019-01-26T08:23:51.877Z,107.87
2019-01-26T08:25:59.333Z,103.07
2019-01-26T08:28:07.284Z,98.73
2019-01-26T08:30:18.485Z,91.40
2019-01-26T08:32:26.023Z,100.87
2019-01-26T08:34:33.292Z,110.07
2019-01-26T08:36:43.965Z,104.50
2019-01-26T08:38:51.817Z,108.10
2019-01-26T08:40:58.985Z,96.40
2019-01-26T08:43:06.330Z,97.57
2019-01-26T08:45:14.799Z,95.67
2019-01-26T08:47:22.430Z,99.20
2019-01-26T08:49:30.011Z,98.37
2019-01-26T08:51:37.564Z,93.60
2019-01-26T08:53:44.870Z,107.57
2019-01-26T08:55:52.430Z,107.87
2019-01-26T08:57:59.881Z,100.50
2019-01-26T09:00:10.753Z,95.53
2019-01-26T09:02:38.461Z,101.73
2019-01-26T09:04:45.996Z,118.37
2019-01-26T09:06:56.883Z,100.37
2019-01-26T09:09:06.363Z,102.37
2019-01-26T09:11:14.214Z,89.90
2019-01-26T09:13:21.675Z,98.37
2019-01-26T09:15:29.266Z,98.40
2019-01-26T09:17:36.846Z,89.30
2019-01-26T09:19:44.206Z,95.07
2019-01-26T09:21:51.991Z,97.43
2019-01-26T09:23:59.555Z,110.03
2019-01-26T09:26:07.125Z,117.00
2019-01-26T09:28:14.771Z,104.47
2019-01-26T09:30:22.886Z,115.13
2019-01-26T09:32:30.291Z,109.93
2019-01-26T09:34:37.769Z,99.80
2019-01-26T09:36:45.371Z,107.13
2019-01-26T09:38:53.142Z,105.97
2019-01-26T09:41:00.890Z,108.20
2019-01-26T09:43:09.662Z,95.20
2019-01-26T09:45:17.179Z,99.90
2019-01-26T09:47:24.692Z,95.63
2019-01-26T09:49:32.354Z,101.50
2019-01-26T09:51:39.901Z,93.60
2019-01-26T09:53:47.782Z,105.77
2019-01-26T09:55:55.575Z,95.73
2019-01-26T09:58:03.105Z,102.00
2019-01-26T10:00:15.412Z,105.77
2019-01-26T10:02:22.987Z,104.57
2019-01-26T10:04:30.582Z,93.17
2019-01-26T10:06:38.054Z,94.73
2019-01-26T10:08:45.483Z,94.07
2019-01-26T10:10:53.215Z,93.97
2019-01-26T10:13:00.704Z,102.03
2019-01-26T10:15:10.113Z,99.17
2019-01-26T10:17:17.648Z,88.97
2019-01-26T10:19:25.169Z,105.93
2019-01-26T10:21:32.876Z,93.37
2019-01-26T10:23:39.973Z,90.97
2019-01-26T10:25:48.696Z,87.80
2019-01-26T10:27:56.557Z,114.70
2019-01-26T10:30:04.112Z,138.30
2019-01-26T10:32:12.544Z,103.63
2019-01-26T10:34:20.329Z,86.90
2019-01-26T10:36:41.594Z,87.60
2019-01-26T10:39:14.322Z,102.30
2019-01-26T10:41:46.776Z,91.43
2019-01-26T10:43:54.559Z,86.93
2019-01-26T10:46:02.085Z,84.77
2019-01-26T10:48:09.772Z,86.67
2019-01-26T10:50:16.970Z,92.20
2019-01-26T10:52:24.109Z,80.20
2019-01-26T10:54:31.391Z,88.47
2019-01-26T10:56:38.570Z,104.80
2019-01-26T10:58:45.869Z,105.93
2019-01-26T11:00:53.037Z,98.70
2019-01-26T11:03:00.252Z,92.53
2019-01-26T11:05:07.710Z,87.10
2019-01-26T11:07:15.852Z,92.87
2019-01-26T11:09:23.089Z,93.73
2019-01-26T11:11:30.183Z,78.37
2019-01-26T11:13:37.893Z,93.93
2019-01-26T11:15:44.899Z,80.10
2019-01-26T11:17:52.044Z,92.47
2019-01-26T11:19:59.242Z,116.30
2019-01-26T11:22:06.446Z,103.50
2019-01-26T11:24:13.661Z,107.27
2019-01-26T11:26:21.259Z,99.17
2019-01-26T11:28:29.014Z,105.20
2019-01-26T11:30:37.632Z,90.87
2019-01-26T11:32:45.159Z,111.77
2019-01-26T11:34:52.836Z,119.50
2019-01-26T11:37:00.708Z,112.53
2019-01-26T11:39:11.838Z,162.53
2019-01-26T11:41:19.568Z,101.37
2019-01-26T11:43:27.243Z,203.50
2019-01-26T11:45:45.247Z,201.43
2019-01-26T11:47:52.684Z,198.63
2019-01-26T11:50:01.472Z,116.60
2019-01-26T11:52:10.263Z,145.70
2019-01-26T11:54:19.172Z,125.07
2019-01-26T11:56:35.235Z,111.03
2019-01-26T11:58:42.825Z,100.50
2019-01-26T12:01:15.077Z,99.30
2019-01-26T12:03:56.656Z,98.60
2019-01-26T12:06:18.403Z,91.90
2019-01-26T12:08:25.829Z,112.87
2019-01-26T12:10:33.676Z,112.57
2019-01-26T12:12:41.159Z,99.60
2019-01-26T12:14:48.743Z,100.37
2019-01-26T12:16:56.474Z,92.17
2019-01-26T12:19:04.185Z,103.67
2019-01-26T12:21:11.889Z,96.63
2019-01-26T12:23:20.730Z,99.57
2019-01-26T12:25:28.188Z,95.97
2019-01-26T12:27:35.770Z,87.90
2019-01-26T12:29:43.401Z,99.43
2019-01-26T12:31:50.804Z,102.93
2019-01-26T12:33:58.709Z,94.63
2019-01-26T12:36:06.674Z,93.60
2019-01-26T12:38:14.147Z,95.37
2019-01-26T12:40:22.185Z,98.00
2019-01-26T12:42:29.740Z,93.20
2019-01-26T12:44:37.967Z,94.77
2019-01-26T12:46:45.803Z,85.07
2019-01-26T12:48:53.564Z,96.40
2019-01-26T12:51:00.892Z,88.97
2019-01-26T12:53:08.420Z,90.37
2019-01-26T12:55:16.869Z,97.93
2019-01-26T12:57:24.498Z,92.67
2019-01-26T12:59:32.111Z,95.67
2019-01-26T13:01:40.085Z,93.90
2019-01-26T13:03:47.643Z,91.33
2019-01-26T13:05:55.276Z,86.90
2019-01-26T13:08:03.128Z,92.90
2019-01-26T13:10:19.749Z,95.97
2019-01-26T13:12:27.281Z,89.17
2019-01-26T13:14:35.055Z,89.53
2019-01-26T13:16:42.743Z,96.60
2019-01-26T13:18:50.179Z,97.43
2019-01-26T13:20:58.216Z,105.90
2019-01-26T13:23:05.795Z,90.10
2019-01-26T13:25:15.195Z,108.47
2019-01-26T13:27:22.696Z,105.80
2019-01-26T13:29:30.278Z,101.00
2019-01-26T13:31:38.145Z,106.20
2019-01-26T13:33:45.770Z,106.53
2019-01-26T13:35:53.464Z,93.57
2019-01-26T13:38:01.336Z,86.67
2019-01-26T13:40:12.294Z,95.40
2019-01-26T13:42:19.762Z,99.13
2019-01-26T13:44:27.115Z,107.90
2019-01-26T13:46:34.843Z,116.53
2019-01-26T13:48:42.159Z,124.90
2019-01-26T13:50:49.958Z,105.50
2019-01-26T13:52:57.616Z,106.13
2019-01-26T13:55:05.459Z,96.10
2019-01-26T13:57:12.894Z,94.10
2019-01-26T13:59:21.442Z,96.87
2019-01-26T14:01:29.106Z,103.77
2019-01-26T14:03:36.769Z,110.57
2019-01-26T14:05:44.414Z,126.80
2019-01-26T14:07:52.267Z,128.67
2019-01-26T14:09:59.907Z,139.10
2019-01-26T14:12:07.534Z,117.40
2019-01-26T14:14:15.017Z,105.10
2019-01-26T14:16:22.608Z,114.27
2019-01-26T14:18:30.437Z,129.57
2019-01-26T14:20:38.419Z,116.90
2019-01-26T14:22:45.902Z,117.53
2019-01-26T14:24:53.255Z,116.73
2019-01-26T14:27:01.049Z,140.83
2019-01-26T14:29:08.487Z,154.87
2019-01-26T14:31:16.603Z,118.77
2019-01-26T14:33:24.922Z,131.13
2019-01-26T14:35:33.135Z,126.77
2019-01-26T14:37:40.782Z,112.13
2019-01-26T14:39:51.962Z,133.40
2019-01-26T14:42:00.036Z,129.37
2019-01-26T14:44:07.676Z,133.23
2019-01-26T14:46:15.218Z,131.17
2019-01-26T14:48:23.030Z,142.10
2019-01-26T14:50:31.042Z,131.87
2019-01-26T14:52:39.089Z,135.53
2019-01-26T14:54:46.606Z,143.57
2019-01-26T14:56:55.265Z,134.17
2019-01-26T14:59:02.851Z,134.10
2019-01-26T15:01:10.640Z,136.83
2019-01-26T15:03:18.842Z,130.10
2019-01-26T15:05:26.614Z,151.43
2019-01-26T15:07:34.381Z,152.90
2019-01-26T15:09:42.271Z,156.03
2019-01-26T15:11:49.854Z,160.23
2019-01-26T15:13:59.336Z,165.40
2019-01-26T15:16:07.028Z,160.27
2019-01-26T15:18:15.025Z,153.33
2019-01-26T15:20:26.683Z,156.47
2019-01-26T15:22:34.994Z,144.13
2019-01-26T15:24:42.715Z,149.33
2019-01-26T15:26:50.621Z,192.90
2019-01-26T15:28:59.035Z,232.80
2019-01-26T15:31:06.549Z,262.87
2019-01-26T15:33:15.200Z,228.00
2019-01-26T15:35:23.255Z,199.47
2019-01-26T15:37:31.042Z,159.67
2019-01-26T15:39:38.868Z,149.43
2019-01-26T15:41:47.446Z,148.70
2019-01-26T15:43:55.091Z,129.40
2019-01-26T15:46:03.155Z,144.23
2019-01-26T15:48:11.058Z,122.17
2019-01-26T15:50:18.847Z,158.20
2019-01-26T15:52:26.436Z,149.20
2019-01-26T15:54:36.538Z,160.33
2019-01-26T15:56:43.903Z,196.83
2019-01-26T15:58:52.626Z,179.57
2019-01-26T16:01:00.611Z,184.77
2019-01-26T16:03:10.120Z,163.63
2019-01-26T16:05:18.075Z,176.23
2019-01-26T16:07:27.627Z,174.97
2019-01-26T16:09:36.424Z,164.47
2019-01-26T16:11:44.490Z,164.67
2019-01-26T16:13:52.980Z,151.43
2019-01-26T16:16:01.900Z,163.03
2019-01-26T16:18:13.520Z,173.60
2019-01-26T16:20:21.654Z,171.90
2019-01-26T16:22:29.275Z,163.63
2019-01-26T16:24:36.914Z,246.40
2019-01-26T16:26:44.780Z,277.57
2019-01-26T16:28:52.226Z,214.40
2019-01-26T16:31:00.277Z,203.17
2019-01-26T16:33:08.808Z,228.70
2019-01-26T16:35:16.820Z,163.33
2019-01-26T16:37:24.640Z,163.13
2019-01-26T16:39:32.739Z,177.83
2019-01-26T16:41:40.497Z,197.13
2019-01-26T16:43:48.355Z,197.00
2019-01-26T16:45:55.938Z,197.77
2019-01-26T16:48:03.720Z,239.07
2019-01-26T16:50:16.077Z,235.87
2019-01-26T16:52:23.926Z,296.13
2019-01-26T16:54:31.634Z,325.70
2019-01-26T16:56:39.257Z,229.33
2019-01-26T16:58:47.443Z,204.43
2019-01-26T17:00:58.706Z,273.60
2019-01-26T17:03:06.301Z,329.10
2019-01-26T17:05:14.015Z,262.90
2019-01-26T17:07:21.466Z,210.37
2019-01-26T17:09:29.557Z,232.23
2019-01-26T17:11:37.458Z,237.80
2019-01-26T17:13:44.938Z,211.20
2019-01-26T17:15:52.875Z,189.10
2019-01-26T17:18:00.982Z,166.13
2019-01-26T17:20:17.619Z,165.83
2019-01-26T17:22:25.920Z,173.33
2019-01-26T17:24:34.848Z,168.47
2019-01-26T17:26:42.658Z,192.37
2019-01-26T17:28:51.166Z,195.00
2019-01-26T17:30:59.451Z,205.50
2019-01-26T17:33:07.892Z,170.53
2019-01-26T17:35:16.642Z,143.73
2019-01-26T17:37:25.337Z,150.33
2019-01-26T17:39:32.813Z,187.27
2019-01-26T17:41:40.810Z,170.40
2019-01-26T17:43:48.562Z,169.93
2019-01-26T17:45:56.994Z,175.60
2019-01-26T17:48:04.708Z,171.23
2019-01-26T17:50:16.454Z,180.30
2019-01-26T17:52:24.269Z,169.33
2019-01-26T17:54:32.498Z,188.07
2019-01-26T17:56:40.561Z,231.73
2019-01-26T17:58:48.076Z,241.73
2019-01-26T18:01:01.197Z,230.10
2019-01-26T18:03:09.406Z,269.70
2019-01-26T18:05:17.483Z,270.90
2019-01-26T18:07:25.582Z,249.80
2019-01-26T18:09:33.675Z,238.03
2019-01-26T18:11:41.564Z,250.53
2019-01-26T18:13:49.485Z,236.30
2019-01-26T18:15:57.873Z,272.03
2019-01-26T18:18:05.723Z,217.93
2019-01-26T18:20:18.190Z,204.30
2019-01-26T18:22:25.891Z,232.77
2019-01-26T18:24:34.100Z,247.20
2019-01-26T18:26:42.362Z,226.57
2019-01-26T18:28:50.933Z,214.87
2019-01-26T18:30:59.257Z,220.30
2019-01-26T18:33:07.150Z,240.43
2019-01-26T18:35:15.214Z,226.80
2019-01-26T18:37:25.154Z,217.23
2019-01-26T18:39:32.593Z,197.33
2019-01-26T18:41:40.274Z,191.00
2019-01-26T18:43:47.767Z,202.57
2019-01-26T18:45:55.253Z,204.77
2019-01-26T18:48:03.421Z,195.57
2019-01-26T18:50:15.407Z,197.87
2019-01-26T18:52:23.240Z,150.07
2019-01-26T18:54:31.819Z,158.03
2019-01-26T18:56:39.705Z,170.93
2019-01-26T18:58:47.879Z,220.97
2019-01-26T19:00:55.362Z,168.13
2019-01-26T19:03:54.400Z,186.40
2019-01-26T19:06:02.519Z,181.00
2019-01-26T19:08:10.407Z,158.30
2019-01-26T19:10:18.481Z,177.70
2019-01-26T19:12:26.624Z,172.07
2019-01-26T19:14:34.628Z,157.63
2019-01-26T19:16:42.648Z,166.10
2019-01-26T19:18:52.109Z,155.00
2019-01-26T19:21:03.337Z,155.37
2019-01-26T19:23:11.037Z,161.20
2019-01-26T19:25:19.840Z,207.87
2019-01-26T19:27:27.649Z,231.73
2019-01-26T19:29:36.058Z,202.47
2019-01-26T19:31:44.236Z,212.37
2019-01-26T19:33:52.946Z,213.30
2019-01-26T19:36:02.934Z,202.03
2019-01-26T19:38:10.846Z,201.67
2019-01-26T19:40:20.908Z,197.27
2019-01-26T19:42:29.093Z,206.13
2019-01-26T19:44:37.942Z,198.27
2019-01-26T19:46:46.111Z,226.80
2019-01-26T19:48:53.795Z,214.10
2019-01-26T19:51:01.438Z,204.03
2019-01-26T19:53:09.073Z,193.40
2019-01-26T19:55:17.128Z,198.77
2019-01-26T19:57:25.005Z,178.00
2019-01-26T19:59:32.304Z,168.83
2019-01-26T20:01:39.664Z,172.50
2019-01-26T20:03:47.526Z,175.73
2019-01-26T20:05:55.361Z,195.50
2019-01-26T20:08:03.121Z,254.27
2019-01-26T20:10:11.174Z,186.07
2019-01-26T20:12:18.673Z,255.10
2019-01-26T20:14:26.654Z,197.13
2019-01-26T20:16:36.484Z,225.37
2019-01-26T20:18:43.504Z,189.03
2019-01-26T20:20:50.989Z,199.77
2019-01-26T20:22:58.490Z,200.17
2019-01-26T20:25:06.509Z,191.03
2019-01-26T20:27:14.148Z,165.17
2019-01-26T20:29:21.823Z,145.17
2019-01-26T20:31:29.274Z,165.07
2019-01-26T20:33:36.878Z,171.70
2019-01-26T20:35:44.662Z,168.23
2019-01-26T20:37:51.878Z,167.63
2019-01-26T20:39:59.213Z,184.47
2019-01-26T20:42:06.978Z,230.90
2019-01-26T20:44:14.700Z,233.83
2019-01-26T20:46:22.317Z,250.33
2019-01-26T20:48:29.803Z,263.60
2019-01-26T20:50:37.763Z,311.23
2019-01-26T20:52:45.095Z,237.40
2019-01-26T20:54:53.151Z,302.93
2019-01-26T20:57:00.833Z,215.40
2019-01-26T20:59:08.239Z,356.83
2019-01-26T21:01:15.994Z,296.90
2019-01-26T21:03:23.290Z,213.50
2019-01-26T21:05:30.578Z,176.73
2019-01-26T21:07:38.105Z,205.77
2019-01-26T21:09:45.609Z,241.13
2019-01-26T21:11:53.112Z,235.63
2019-01-26T21:14:00.627Z,221.87
2019-01-26T21:16:08.350Z,217.43
2019-01-26T21:18:15.775Z,207.37
2019-01-26T21:20:24.115Z,197.27
2019-01-26T21:22:31.567Z,326.63
2019-01-26T21:24:39.260Z,209.40
2019-01-26T21:26:46.824Z,197.20
2019-01-26T21:28:54.425Z,222.17
2019-01-26T21:31:01.802Z,211.17
2019-01-26T21:33:09.270Z,251.67
2019-01-26T21:35:16.819Z,264.50
2019-01-26T21:37:24.563Z,261.30
2019-01-26T21:39:32.483Z,228.30
2019-01-26T21:41:40.069Z,240.27
2019-01-26T21:43:47.707Z,344.83
2019-01-26T21:45:55.274Z,489.37
2019-01-26T21:48:02.711Z,339.67
2019-01-26T21:50:16.785Z,238.27
2019-01-26T21:52:24.580Z,175.30
2019-01-26T21:54:32.028Z,182.77
2019-01-26T21:56:39.534Z,185.00
2019-01-26T21:58:47.124Z,176.97
2019-01-26T22:00:54.661Z,175.27
2019-01-26T22:03:02.714Z,195.07
2019-01-26T22:05:10.992Z,202.67
2019-01-26T22:07:18.437Z,209.30
2019-01-26T22:09:25.987Z,182.07
2019-01-26T22:11:33.693Z,190.40
2019-01-26T22:13:41.219Z,193.33
2019-01-26T22:15:48.785Z,183.50
2019-01-26T22:17:56.442Z,185.60
2019-01-26T22:20:04.032Z,200.00
2019-01-26T22:22:11.475Z,179.60
2019-01-26T22:24:19.037Z,178.97
2019-01-26T22:26:26.456Z,198.33
2019-01-26T22:28:33.857Z,217.00
2019-01-26T22:30:41.482Z,376.10
2019-01-26T22:32:48.887Z,303.63
2019-01-26T22:34:56.328Z,221.03
2019-01-26T22:37:04.097Z,195.40
2019-01-26T22:39:11.700Z,200.30
2019-01-26T22:41:19.082Z,179.93
2019-01-26T22:43:27.015Z,178.20
2019-01-26T22:45:34.641Z,179.10
2019-01-26T22:47:42.161Z,186.07
2019-01-26T22:49:49.681Z,185.93
2019-01-26T22:51:57.138Z,178.43
2019-01-26T22:54:04.943Z,171.60
2019-01-26T22:56:12.696Z,185.77
2019-01-26T22:58:20.126Z,182.77
2019-01-26T23:00:57.934Z,181.67
2019-01-26T23:03:05.817Z,173.53
2019-01-26T23:06:23.838Z,179.27
2019-01-26T23:08:32.110Z,159.40
2019-01-26T23:11:20.867Z,167.80
2019-01-26T23:14:31.000Z,169.70
2019-01-26T23:17:40.223Z,169.87
2019-01-26T23:20:12.063Z,181.93
2019-01-26T23:23:06.510Z,186.97
2019-01-26T23:25:51.838Z,172.90
2019-01-26T23:28:14.634Z,181.73
2019-01-26T23:31:12.110Z,195.77
2019-01-26T23:33:19.675Z,176.13
2019-01-26T23:35:27.118Z,190.17
2019-01-26T23:37:34.710Z,184.27
2019-01-26T23:39:41.993Z,176.73
2019-01-26T23:41:49.344Z,180.70
2019-01-26T23:43:56.740Z,196.27
2019-01-26T23:46:04.170Z,194.27
2019-01-26T23:48:11.505Z,194.07
2019-01-26T23:50:18.906Z,209.77
2019-01-26T23:52:26.352Z,189.70
2019-01-26T23:54:33.867Z,185.37
2019-01-26T23:56:41.846Z,185.77
2019-01-26T23:58:49.360Z,176.40
